createdAt,value
2018-07-06T00:01:48.419Z,11.40
2018-07-06T00:04:28.373Z,12.87
2018-07-06T00:07:08.495Z,13.27
2018-07-06T00:09:48.358Z,12.63
2018-07-06T00:12:28.416Z,13.40
2018-07-06T00:15:08.224Z,13.77
2018-07-06T00:17:48.297Z,14.63
2018-07-06T00:20:28.209Z,12.73
2018-07-06T00:23:08.227Z,12.73
2018-07-06T00:25:48.573Z,12.35
2018-07-06T00:28:28.647Z,12.50
2018-07-06T00:31:15.457Z,14.60
2018-07-06T00:33:55.391Z,15.90
2018-07-06T00:36:35.397Z,14.87
2018-07-06T00:39:15.508Z,16.43
2018-07-06T00:41:55.443Z,14.80
2018-07-06T00:44:35.409Z,14.67
2018-07-06T00:47:15.295Z,15.77
2018-07-06T00:49:55.081Z,15.63
2018-07-06T00:52:35.129Z,15.87
2018-07-06T00:55:15.080Z,17.00
2018-07-06T00:57:54.823Z,17.10
2018-07-06T01:00:34.742Z,16.93
2018-07-06T01:03:14.888Z,16.13
2018-07-06T01:05:55.493Z,17.75
2018-07-06T01:08:35.430Z,18.97
2018-07-06T01:11:15.385Z,17.07
2018-07-06T01:13:55.451Z,18.47
2018-07-06T01:16:35.373Z,18.67
2018-07-06T01:19:15.485Z,17.20
2018-07-06T01:21:49.421Z,17.10
2018-07-06T01:24:29.327Z,18.03
2018-07-06T01:27:09.088Z,17.43
2018-07-06T01:29:49.203Z,20.53
2018-07-06T01:32:29.229Z,18.97
2018-07-06T01:35:09.490Z,19.13
2018-07-06T01:37:49.486Z,19.80
2018-07-06T01:40:29.502Z,19.77
2018-07-06T01:43:09.569Z,20.63
2018-07-06T01:45:49.532Z,18.10
2018-07-06T01:48:29.496Z,17.50
2018-07-06T01:51:09.530Z,18.50
2018-07-06T01:53:49.552Z,17.10
2018-07-06T01:56:29.679Z,17.30
2018-07-06T01:59:09.628Z,17.33
2018-07-06T02:01:43.696Z,16.50
2018-07-06T02:04:23.650Z,17.43
2018-07-06T02:07:03.830Z,17.00
2018-07-06T02:09:43.770Z,16.80
2018-07-06T02:12:23.952Z,15.73
2018-07-06T02:15:03.908Z,14.57
2018-07-06T02:17:44.096Z,13.53
2018-07-06T02:20:24.127Z,14.50
2018-07-06T02:23:04.058Z,16.40
2018-07-06T02:25:44.078Z,12.07
2018-07-06T02:28:24.034Z,14.03
2018-07-06T02:31:04.036Z,14.03
2018-07-06T02:33:44.108Z,13.67
2018-07-06T02:36:24.370Z,15.13
2018-07-06T02:39:04.934Z,13.63
2018-07-06T02:41:44.887Z,16.87
2018-07-06T02:44:24.989Z,16.17
2018-07-06T02:46:58.985Z,15.90
2018-07-06T02:49:38.900Z,13.70
2018-07-06T02:52:19.056Z,16.20
2018-07-06T02:54:59.182Z,14.67
2018-07-06T02:57:38.952Z,16.90
2018-07-06T03:00:19.040Z,15.17
2018-07-06T03:02:58.840Z,16.73
2018-07-06T03:05:38.844Z,15.80
2018-07-06T03:08:18.872Z,14.43
2018-07-06T03:10:58.930Z,16.20
2018-07-06T03:13:39.080Z,15.57
2018-07-06T03:16:19.306Z,17.23
2018-07-06T03:18:59.332Z,15.63
2018-07-06T03:21:39.511Z,16.10
2018-07-06T03:24:19.481Z,17.03
2018-07-06T03:26:59.676Z,17.63
2018-07-06T03:29:39.849Z,15.60
2018-07-06T03:32:13.722Z,16.33
2018-07-06T03:34:53.704Z,16.60
2018-07-06T03:37:33.828Z,16.80
2018-07-06T03:40:13.886Z,16.33
2018-07-06T03:42:53.710Z,16.53
2018-07-06T03:45:33.769Z,17.13
2018-07-06T03:48:13.881Z,17.23
2018-07-06T03:50:53.840Z,17.03
2018-07-06T03:53:34.028Z,14.47
2018-07-06T03:56:13.837Z,15.50
2018-07-06T03:58:53.758Z,15.30
2018-07-06T04:01:34.068Z,15.80
2018-07-06T04:04:14.636Z,15.10
2018-07-06T04:06:54.480Z,14.40
2018-07-06T04:09:34.308Z,12.80
2018-07-06T04:12:14.462Z,12.67
2018-07-06T04:14:54.361Z,12.33
2018-07-06T04:17:34.484Z,13.17
2018-07-06T04:20:14.470Z,12.00
2018-07-06T04:22:54.502Z,11.03
2018-07-06T04:25:34.471Z,12.43
2018-07-06T04:28:14.467Z,13.13
2018-07-06T04:30:54.708Z,11.70
2018-07-06T04:33:34.572Z,10.73
2018-07-06T04:36:14.410Z,10.33
2018-07-06T04:38:54.349Z,11.57
2018-07-06T04:41:34.314Z,10.60
2018-07-06T04:44:14.540Z,12.03
2018-07-06T04:46:54.424Z,12.23
2018-07-06T04:49:34.414Z,11.73
2018-07-06T04:52:14.250Z,11.77
2018-07-06T04:54:54.368Z,12.07
2018-07-06T04:57:34.161Z,11.53
2018-07-06T05:00:13.982Z,12.47
2018-07-06T05:02:53.882Z,11.67
2018-07-06T05:05:33.958Z,10.47
2018-07-06T05:08:07.764Z,10.83
2018-07-06T05:10:47.816Z,10.23
2018-07-06T05:13:27.768Z,10.00
2018-07-06T05:16:07.749Z,9.70
2018-07-06T05:18:47.924Z,10.03
2018-07-06T05:21:27.896Z,10.03
2018-07-06T05:24:07.750Z,9.57
2018-07-06T05:26:47.727Z,9.23
2018-07-06T05:29:27.728Z,9.80
2018-07-06T05:32:07.848Z,9.20
2018-07-06T05:34:47.848Z,8.93
2018-07-06T05:37:27.653Z,9.00
2018-07-06T05:40:07.694Z,10.10
2018-07-06T05:42:47.486Z,7.83
2018-07-06T05:45:27.354Z,8.43
2018-07-06T05:48:07.762Z,8.33
2018-07-06T05:50:47.733Z,8.87
2018-07-06T05:53:28.680Z,9.90
2018-07-06T05:56:08.747Z,8.93
2018-07-06T05:58:48.521Z,8.80
2018-07-06T06:01:28.551Z,9.40
2018-07-06T06:04:08.613Z,8.70
2018-07-06T06:06:48.763Z,9.53
2018-07-06T06:09:17.657Z,10.50
2018-07-06T06:11:46.535Z,9.70
2018-07-06T06:14:15.765Z,11.60
2018-07-06T06:16:44.621Z,11.22
2018-07-06T06:19:13.612Z,14.83
2018-07-06T06:21:43.515Z,12.10
2018-07-06T06:24:12.378Z,12.57
2018-07-06T06:26:41.413Z,11.35
2018-07-06T06:29:10.329Z,10.67
2018-07-06T06:31:39.387Z,11.13
2018-07-06T06:34:08.273Z,14.03
2018-07-06T06:36:36.891Z,12.03
2018-07-06T06:39:05.883Z,12.50
2018-07-06T06:41:34.841Z,15.70
2018-07-06T06:44:03.289Z,13.73
2018-07-06T06:46:32.149Z,15.17
2018-07-06T06:49:01.109Z,15.53
2018-07-06T06:51:30.223Z,15.30
2018-07-06T06:53:59.983Z,15.37
2018-07-06T06:56:29.511Z,13.73
2018-07-06T06:58:58.568Z,15.70
2018-07-06T07:01:27.772Z,14.40
2018-07-06T07:03:56.924Z,15.70
2018-07-06T07:06:25.889Z,16.53
2018-07-06T07:08:54.860Z,17.60
2018-07-06T07:11:23.667Z,15.80
2018-07-06T07:13:53.269Z,15.17
2018-07-06T07:16:22.171Z,16.07
2018-07-06T07:18:51.139Z,16.03
2018-07-06T07:21:20.117Z,14.00
2018-07-06T07:23:49.162Z,15.30
2018-07-06T07:26:17.999Z,16.23
2018-07-06T07:28:46.987Z,16.40
2018-07-06T07:31:15.782Z,16.53
2018-07-06T07:33:44.989Z,14.67
2018-07-06T07:36:13.873Z,16.80
2018-07-06T07:38:43.173Z,15.33
2018-07-06T07:41:12.562Z,13.63
2018-07-06T07:43:41.497Z,17.07
2018-07-06T07:46:10.555Z,16.67
2018-07-06T07:48:39.703Z,14.87
2018-07-06T07:51:13.666Z,15.17
2018-07-06T07:53:53.447Z,16.27
2018-07-06T07:56:22.349Z,16.57
2018-07-06T07:58:51.522Z,15.43
2018-07-06T08:01:20.585Z,16.00
2018-07-06T08:03:49.457Z,16.17
2018-07-06T08:06:18.226Z,15.80
2018-07-06T08:08:47.169Z,16.03
2018-07-06T08:11:16.145Z,15.47
2018-07-06T08:13:45.072Z,14.97
2018-07-06T08:16:13.896Z,16.10
2018-07-06T08:18:43.176Z,16.07
2018-07-06T08:21:12.066Z,16.23
2018-07-06T08:23:40.893Z,16.27
2018-07-06T08:26:09.713Z,15.17
2018-07-06T08:28:38.518Z,14.97
2018-07-06T08:31:07.280Z,14.40
2018-07-06T08:33:42.212Z,15.77
2018-07-06T08:37:22.652Z,15.70
2018-07-06T08:39:51.585Z,15.30
2018-07-06T08:42:20.486Z,16.00
2018-07-06T08:44:49.410Z,15.37
2018-07-06T08:47:18.164Z,14.13
2018-07-06T08:49:47.068Z,14.10
2018-07-06T08:52:16.312Z,14.57
2018-07-06T08:54:45.215Z,14.33
2018-07-06T08:57:13.994Z,15.53
2018-07-06T08:59:42.798Z,14.77
2018-07-06T09:02:11.873Z,16.90
2018-07-06T09:04:40.907Z,13.37
2018-07-06T09:07:09.774Z,11.77
2018-07-06T09:09:38.928Z,11.87
2018-07-06T09:12:08.559Z,11.70
2018-07-06T09:14:37.850Z,12.60
2018-07-06T09:17:06.820Z,12.77
2018-07-06T09:19:35.844Z,12.73
2018-07-06T09:22:04.770Z,12.87
2018-07-06T09:24:33.585Z,14.30
2018-07-06T09:27:02.025Z,13.40
2018-07-06T09:29:30.816Z,13.07
2018-07-06T09:31:59.679Z,13.93
2018-07-06T09:34:28.486Z,15.03
2018-07-06T09:36:57.390Z,14.03
2018-07-06T09:39:26.097Z,13.67
2018-07-06T09:41:55.321Z,10.07
2018-07-06T09:44:24.164Z,10.87
2018-07-06T09:46:53.069Z,10.90
2018-07-06T09:49:22.254Z,10.83
2018-07-06T09:51:51.160Z,11.47
2018-07-06T09:54:20.286Z,9.93
2018-07-06T09:56:48.762Z,10.13
2018-07-06T09:59:17.544Z,9.53
2018-07-06T10:01:46.500Z,10.33
2018-07-06T10:04:15.298Z,9.77
2018-07-06T10:06:44.285Z,9.67
2018-07-06T10:09:13.233Z,8.70
2018-07-06T10:11:42.186Z,8.27
2018-07-06T10:14:11.074Z,8.60
2018-07-06T10:16:39.944Z,9.07
2018-07-06T10:19:08.922Z,8.93
2018-07-06T10:21:37.759Z,9.03
2018-07-06T10:24:06.698Z,8.63
2018-07-06T10:26:35.594Z,10.50
2018-07-06T10:30:16.062Z,8.80
2018-07-06T10:32:45.101Z,9.00
2018-07-06T10:35:13.995Z,8.73
2018-07-06T10:37:42.810Z,8.23
2018-07-06T10:40:11.904Z,7.73
2018-07-06T10:42:40.719Z,7.53
2018-07-06T10:45:09.626Z,7.93
2018-07-06T10:47:38.414Z,7.43
2018-07-06T10:50:07.229Z,7.90
2018-07-06T10:52:36.049Z,6.87
2018-07-06T10:55:04.365Z,5.33
2018-07-06T10:57:33.263Z,6.27
2018-07-06T11:00:01.975Z,6.30
2018-07-06T11:02:30.790Z,5.63
2018-07-06T11:04:59.448Z,5.73
2018-07-06T11:07:28.354Z,5.43
2018-07-06T11:09:57.152Z,5.73
2018-07-06T11:12:25.951Z,6.37
2018-07-06T11:14:54.723Z,5.30
2018-07-06T11:17:23.548Z,5.50
2018-07-06T11:19:52.488Z,5.47
2018-07-06T11:22:21.329Z,5.57
2018-07-06T11:24:50.296Z,4.87
2018-07-06T11:27:19.195Z,5.55
2018-07-06T11:29:48.014Z,5.47
2018-07-06T11:32:16.858Z,5.73
2018-07-06T11:34:45.636Z,5.20
2018-07-06T11:37:14.596Z,5.47
2018-07-06T11:39:43.454Z,5.30
2018-07-06T11:42:12.343Z,4.70
2018-07-06T11:44:41.165Z,4.73
2018-07-06T11:47:10.016Z,5.40
2018-07-06T11:49:38.898Z,4.55
2018-07-06T11:52:07.666Z,5.47
2018-07-06T11:54:36.466Z,4.40
2018-07-06T11:57:05.172Z,5.03
2018-07-06T11:59:34.058Z,5.30
2018-07-06T12:02:02.918Z,5.35
2018-07-06T12:04:32.235Z,5.00
2018-07-06T12:07:00.784Z,4.92
2018-07-06T12:09:29.772Z,4.20
2018-07-06T12:11:58.766Z,3.20
2018-07-06T12:14:27.602Z,3.55
2018-07-06T12:16:56.396Z,3.20
2018-07-06T12:19:25.290Z,3.10
2018-07-06T12:22:01.992Z,2.90
2018-07-06T12:24:30.914Z,2.80
2018-07-06T12:26:59.899Z,3.33
2018-07-06T12:29:28.784Z,2.90
2018-07-06T12:31:57.675Z,3.10
2018-07-06T12:34:26.468Z,3.37
2018-07-06T12:36:55.288Z,3.30
2018-07-06T12:39:24.266Z,3.05
2018-07-06T12:41:53.264Z,3.40
2018-07-06T12:44:22.108Z,2.90
2018-07-06T12:46:51.199Z,2.92
2018-07-06T12:49:20.001Z,2.90
2018-07-06T12:51:48.758Z,3.05
2018-07-06T12:54:17.330Z,3.17
2018-07-06T12:56:46.288Z,2.72
2018-07-06T12:59:15.420Z,3.20
2018-07-06T13:01:44.133Z,3.10
2018-07-06T13:04:13.229Z,2.98
2018-07-06T13:06:42.020Z,2.52
2018-07-06T13:09:11.328Z,2.50
2018-07-06T13:11:40.438Z,2.70
2018-07-06T13:14:09.336Z,2.58
2018-07-06T13:16:38.270Z,2.58
2018-07-06T13:19:07.115Z,2.58
2018-07-06T13:21:36.110Z,2.17
2018-07-06T13:24:05.310Z,2.60
2018-07-06T13:26:38.346Z,3.00
2018-07-06T13:29:19.914Z,2.47
2018-07-06T13:31:58.801Z,2.70
2018-07-06T13:34:27.907Z,2.02
2018-07-06T13:36:56.809Z,2.20
2018-07-06T13:39:25.734Z,2.12
2018-07-06T13:41:54.591Z,2.15
2018-07-06T13:44:23.360Z,2.15
2018-07-06T13:46:52.357Z,2.08
2018-07-06T13:49:21.703Z,1.98
2018-07-06T13:51:50.644Z,2.00
2018-07-06T13:54:19.537Z,2.00
2018-07-06T13:56:48.456Z,2.08
2018-07-06T13:59:17.381Z,1.82
2018-07-06T14:01:46.194Z,1.90
2018-07-06T14:04:15.111Z,1.90
2018-07-06T14:06:44.050Z,1.95
2018-07-06T14:09:13.049Z,1.77
2018-07-06T14:11:43.970Z,1.77
2018-07-06T14:14:12.792Z,1.90
2018-07-06T14:16:42.273Z,1.70
2018-07-06T14:19:10.688Z,2.45
2018-07-06T14:21:40.608Z,1.80
2018-07-06T14:24:09.408Z,1.75
2018-07-06T14:26:38.378Z,1.70
2018-07-06T14:29:07.290Z,1.75
2018-07-06T14:31:36.172Z,1.90
2018-07-06T14:34:05.094Z,1.70
2018-07-06T14:36:33.996Z,1.70
2018-07-06T14:39:02.928Z,1.45
2018-07-06T14:44:26.896Z,1.40
2018-07-06T14:46:55.809Z,2.20
2018-07-06T14:49:24.690Z,1.70
2018-07-06T14:51:54.082Z,1.60
2018-07-06T14:54:22.542Z,1.80
2018-07-06T14:56:51.573Z,1.85
2018-07-06T14:59:20.429Z,1.42
2018-07-06T15:01:49.243Z,1.52
2018-07-06T15:04:17.739Z,1.50
2018-07-06T15:06:50.534Z,1.50
2018-07-06T15:09:19.410Z,1.50
2018-07-06T15:11:48.105Z,1.60
2018-07-06T15:14:16.869Z,1.60
2018-07-06T15:16:49.207Z,1.22
2018-07-06T15:19:18.144Z,1.47
2018-07-06T15:21:47.091Z,1.37
2018-07-06T15:24:16.068Z,1.42
2018-07-06T15:26:45.115Z,4.12
2018-07-06T15:29:13.950Z,1.47
2018-07-06T15:31:45.075Z,1.42
2018-07-06T15:34:14.031Z,1.52
2018-07-06T15:36:42.854Z,1.45
2018-07-06T15:39:11.646Z,1.62
2018-07-06T15:41:40.433Z,1.70
2018-07-06T15:44:09.689Z,1.70
2018-07-06T15:46:41.971Z,1.67
2018-07-06T15:49:10.794Z,1.70
2018-07-06T15:51:39.533Z,1.40
2018-07-06T15:54:08.448Z,1.80
2018-07-06T15:56:37.277Z,8.03
2018-07-06T15:59:06.523Z,25.25
2018-07-06T16:01:34.855Z,42.78
2018-07-06T16:04:03.821Z,8.80
2018-07-06T16:06:32.779Z,13.65
2018-07-06T16:09:01.829Z,9.18
2018-07-06T16:11:30.625Z,1.90
2018-07-06T16:13:59.457Z,1.50
2018-07-06T16:16:28.097Z,1.50
2018-07-06T16:18:58.157Z,1.50
2018-07-06T16:21:27.067Z,1.50
2018-07-06T16:23:55.829Z,1.40
2018-07-06T16:26:24.599Z,1.60
2018-07-06T16:28:53.570Z,1.20
2018-07-06T16:31:22.413Z,1.10
2018-07-06T16:33:51.218Z,1.20
2018-07-06T16:36:20.057Z,1.30
2018-07-06T16:38:48.893Z,1.37
2018-07-06T16:41:17.825Z,1.60
2018-07-06T16:43:46.484Z,1.70
2018-07-06T16:46:15.346Z,1.60
2018-07-06T16:48:43.827Z,1.60
2018-07-06T16:51:12.682Z,1.80
2018-07-06T16:53:41.524Z,1.80
2018-07-06T16:56:10.010Z,1.40
2018-07-06T16:58:38.860Z,1.60
2018-07-06T17:01:07.959Z,1.50
2018-07-06T17:03:37.169Z,1.80
2018-07-06T17:06:06.239Z,1.70
2018-07-06T17:08:35.095Z,1.53
2018-07-06T17:11:04.985Z,1.60
2018-07-06T17:13:33.836Z,1.70
2018-07-06T17:16:02.769Z,1.90
2018-07-06T17:18:31.663Z,1.70
2018-07-06T17:21:00.117Z,1.57
2018-07-06T17:23:28.959Z,1.60
2018-07-06T17:25:59.687Z,1.80
2018-07-06T17:28:28.579Z,1.87
2018-07-06T17:30:57.349Z,2.00
2018-07-06T17:33:26.248Z,2.00
2018-07-06T17:35:55.027Z,2.10
2018-07-06T17:38:23.941Z,2.30
2018-07-06T17:40:52.861Z,2.07
2018-07-06T17:43:21.761Z,2.17
2018-07-06T17:45:51.643Z,2.30
2018-07-06T17:48:20.469Z,2.10
2018-07-06T17:50:49.441Z,2.40
2018-07-06T17:53:18.193Z,2.20
2018-07-06T17:55:47.123Z,2.10
2018-07-06T17:58:15.965Z,2.40
2018-07-06T18:00:44.936Z,2.30
2018-07-06T18:03:14.061Z,2.30
2018-07-06T18:05:48.310Z,2.40
2018-07-06T18:08:17.119Z,2.50
2018-07-06T18:10:46.056Z,2.50
2018-07-06T18:13:15.113Z,3.07
2018-07-06T18:15:44.117Z,2.77
2018-07-06T18:18:13.693Z,2.90
2018-07-06T18:20:42.785Z,2.80
2018-07-06T18:23:11.897Z,2.90
2018-07-06T18:25:45.293Z,2.80
2018-07-06T18:28:14.143Z,2.90
2018-07-06T18:30:42.999Z,2.77
2018-07-06T18:33:11.963Z,2.60
2018-07-06T18:35:41.967Z,2.93
2018-07-06T18:38:10.840Z,2.97
2018-07-06T18:40:39.907Z,2.87
2018-07-06T18:43:09.042Z,2.60
2018-07-06T18:45:38.255Z,2.90
2018-07-06T18:48:07.673Z,2.78
2018-07-06T18:50:37.297Z,2.70
2018-07-06T18:53:05.910Z,2.97
2018-07-06T18:55:35.235Z,2.73
2018-07-06T18:58:04.461Z,2.63
2018-07-06T19:00:33.473Z,2.73
2018-07-06T19:03:02.235Z,2.80
2018-07-06T19:05:31.360Z,2.93
2018-07-06T19:08:00.239Z,3.20
2018-07-06T19:10:29.124Z,3.13
2018-07-06T19:12:58.003Z,3.47
2018-07-06T19:15:27.134Z,3.00
2018-07-06T19:17:56.052Z,3.20
2018-07-06T19:20:24.944Z,2.97
2018-07-06T19:22:54.301Z,2.97
2018-07-06T19:25:23.437Z,3.13
2018-07-06T19:27:52.631Z,3.27
2018-07-06T19:30:21.453Z,3.40
2018-07-06T19:32:50.389Z,3.37
2018-07-06T19:35:19.207Z,3.77
2018-07-06T19:37:50.091Z,3.67
2018-07-06T19:40:19.190Z,3.80
2018-07-06T19:42:48.041Z,3.60
2018-07-06T19:45:17.128Z,3.40
2018-07-06T19:47:45.580Z,3.80
2018-07-06T19:50:14.442Z,3.47
2018-07-06T19:52:43.324Z,3.70
2018-07-06T19:55:16.487Z,3.50
2018-07-06T19:57:45.491Z,3.60
2018-07-06T20:00:14.393Z,3.37
2018-07-06T20:02:43.480Z,3.77
2018-07-06T20:05:12.409Z,3.80
2018-07-06T20:07:41.617Z,3.57
2018-07-06T20:10:10.541Z,3.40
2018-07-06T20:12:39.399Z,3.57
2018-07-06T20:15:08.456Z,3.60
2018-07-06T20:17:37.444Z,3.40
2018-07-06T20:20:08.108Z,3.63
2018-07-06T20:22:38.668Z,3.33
2018-07-06T20:25:07.573Z,3.43
2018-07-06T20:27:36.701Z,3.23
2018-07-06T20:30:05.807Z,3.60
2018-07-06T20:32:34.848Z,3.37
2018-07-06T20:35:03.682Z,3.33
2018-07-06T20:37:32.694Z,3.50
2018-07-06T20:40:01.793Z,3.50
2018-07-06T20:42:30.666Z,3.50
2018-07-06T20:44:59.894Z,3.50
2018-07-06T20:47:28.804Z,3.70
2018-07-06T20:49:58.202Z,3.77
2018-07-06T20:52:27.230Z,4.00
2018-07-06T20:54:56.222Z,4.03
2018-07-06T20:57:25.009Z,3.90
2018-07-06T20:59:54.032Z,3.50
2018-07-06T21:02:22.906Z,3.90
2018-07-06T21:04:51.849Z,3.40
2018-07-06T21:07:20.674Z,3.80
2018-07-06T21:09:49.570Z,3.37
2018-07-06T21:12:18.429Z,3.60
2018-07-06T21:14:47.279Z,3.73
2018-07-06T21:17:16.214Z,3.47
2018-07-06T21:19:45.211Z,3.43
2018-07-06T21:22:14.205Z,3.87
2018-07-06T21:24:43.154Z,3.33
2018-07-06T21:27:12.134Z,3.73
2018-07-06T21:29:41.044Z,3.50
2018-07-06T21:32:10.092Z,3.43
2018-07-06T21:34:39.022Z,3.90
2018-07-06T21:37:07.954Z,3.40
2018-07-06T21:39:36.837Z,3.40
2018-07-06T21:42:06.210Z,3.60
2018-07-06T21:44:35.090Z,3.20
2018-07-06T21:47:03.949Z,3.27
2018-07-06T21:49:32.867Z,3.37
2018-07-06T21:52:01.756Z,3.60
2018-07-06T21:54:30.916Z,3.40
2018-07-06T21:57:00.210Z,3.33
2018-07-06T21:59:29.114Z,4.07
2018-07-06T22:01:57.951Z,3.20
2018-07-06T22:04:26.727Z,3.40
2018-07-06T22:06:56.062Z,3.37
2018-07-06T22:09:24.498Z,3.87
2018-07-06T22:11:53.390Z,4.03
2018-07-06T22:14:22.288Z,4.83
2018-07-06T22:16:51.119Z,4.40
2018-07-06T22:19:19.942Z,4.23
2018-07-06T22:21:48.816Z,4.43
2018-07-06T22:24:17.737Z,4.30
2018-07-06T22:26:46.642Z,4.67
2018-07-06T22:29:15.519Z,4.30
2018-07-06T22:31:44.375Z,4.53
2018-07-06T22:34:12.749Z,4.73
2018-07-06T22:36:41.634Z,4.20
2018-07-06T22:39:10.093Z,4.63
2018-07-06T22:41:38.959Z,4.67
2018-07-06T22:44:08.155Z,4.67
2018-07-06T22:46:37.332Z,4.70
2018-07-06T22:49:06.230Z,5.10
2018-07-06T22:51:35.403Z,4.77
2018-07-06T22:54:04.436Z,4.87
2018-07-06T22:56:33.498Z,4.83
2018-07-06T22:59:02.498Z,4.43
2018-07-06T23:01:31.342Z,5.03
2018-07-06T23:04:00.254Z,4.97
2018-07-06T23:06:29.082Z,5.10
2018-07-06T23:08:58.068Z,5.10
2018-07-06T23:11:26.971Z,4.40
2018-07-06T23:13:55.856Z,4.97
2018-07-06T23:16:25.133Z,5.50
2018-07-06T23:18:54.280Z,4.92
2018-07-06T23:21:23.221Z,5.00
2018-07-06T23:23:52.098Z,4.90
2018-07-06T23:26:21.008Z,5.47
2018-07-06T23:28:49.985Z,5.50
2018-07-06T23:31:18.926Z,4.80
2018-07-06T23:33:47.887Z,5.60
2018-07-06T23:36:16.926Z,5.10
2018-07-06T23:38:45.738Z,4.33
2018-07-06T23:41:14.712Z,5.23
2018-07-06T23:43:43.580Z,4.67
2018-07-06T23:46:12.395Z,4.90
2018-07-06T23:48:41.258Z,5.03
2018-07-06T23:51:10.124Z,4.93
2018-07-06T23:53:39.407Z,5.73
2018-07-06T23:56:08.305Z,5.20
2018-07-06T23:58:37.153Z,5.17
